createdAt,value
2022-09-10T00:05:13.196Z,5.57
2022-09-10T00:15:15.868Z,5.82
2022-09-10T00:25:18.175Z,6.05
2022-09-10T00:35:20.497Z,5.40
2022-09-10T00:45:31.700Z,6.50
2022-09-10T00:55:37.633Z,6.65
2022-09-10T01:05:42.657Z,6.70
2022-09-10T01:15:50.740Z,5.68
2022-09-10T01:26:27.845Z,6.70
2022-09-10T01:36:35.706Z,6.25
2022-09-10T01:58:30.553Z,7.63
2022-09-10T02:08:53.890Z,6.78
2022-09-10T02:18:57.610Z,7.68
2022-09-10T02:29:03.530Z,7.07
2022-09-10T02:39:06.218Z,7.60
2022-09-10T02:49:09.397Z,8.70
2022-09-10T02:59:14.463Z,8.88
2022-09-10T03:25:13.974Z,11.98
2022-09-10T03:45:20.981Z,11.90
2022-09-10T03:55:25.679Z,10.50
2022-09-10T04:05:30.166Z,11.40
2022-09-10T04:15:34.653Z,12.07
2022-09-10T04:25:38.977Z,10.90
2022-09-10T04:35:43.374Z,11.18
2022-09-10T04:45:48.284Z,11.70
2022-09-10T04:56:23.953Z,10.48
2022-09-10T05:06:27.917Z,10.65
2022-09-10T05:16:31.994Z,11.75
2022-09-10T05:26:36.496Z,9.95
2022-09-10T05:36:56.777Z,8.70
2022-09-10T05:57:07.678Z,2.75
2022-09-10T06:07:46.051Z,3.03
2022-09-10T06:18:49.078Z,2.92
2022-09-10T06:29:00.562Z,3.47
2022-09-10T06:39:04.146Z,3.90
2022-09-10T06:49:17.022Z,4.25
2022-09-10T06:59:23.659Z,5.13
2022-09-10T07:09:29.055Z,5.05
2022-09-10T07:19:36.441Z,5.68
2022-09-10T07:29:46.763Z,6.78
2022-09-10T07:39:55.124Z,5.63
2022-09-10T07:49:57.942Z,5.40
2022-09-10T08:00:00.946Z,4.45
2022-09-10T08:10:17.756Z,5.85
2022-09-10T08:20:26.811Z,5.38
2022-09-10T08:30:32.288Z,5.38
2022-09-10T08:40:40.267Z,4.32
2022-09-10T08:51:03.673Z,4.22
2022-09-10T09:01:09.519Z,2.70
2022-09-10T09:11:41.156Z,2.67
2022-09-10T09:21:55.801Z,3.20
2022-09-10T09:32:05.666Z,3.20
2022-09-10T09:42:23.989Z,3.70
2022-09-10T09:52:32.003Z,3.40
2022-09-10T10:02:37.206Z,2.95
2022-09-10T10:12:43.028Z,3.00
2022-09-10T10:22:48.514Z,3.13
2022-09-10T10:32:57.062Z,2.97
2022-09-10T10:43:15.245Z,3.35
2022-09-10T10:53:48.941Z,3.20
2022-09-10T11:04:16.044Z,3.17
2022-09-10T11:14:36.081Z,3.20
2022-09-10T11:25:02.357Z,3.70
2022-09-10T11:35:10.899Z,3.42
2022-09-10T11:45:36.383Z,3.17
2022-09-10T11:56:16.244Z,3.60
2022-09-10T12:06:46.915Z,3.88
2022-09-10T12:17:03.550Z,4.13
2022-09-10T12:27:07.469Z,4.72
2022-09-10T13:11:22.797Z,3.50
2022-09-10T13:21:25.896Z,4.18
2022-09-10T13:31:32.522Z,3.47
2022-09-10T13:41:50.070Z,4.10
2022-09-10T14:06:02.047Z,3.15
2022-09-10T14:16:09.480Z,3.00
2022-09-10T14:26:20.242Z,3.13
2022-09-10T14:36:28.918Z,3.72
2022-09-10T14:46:49.355Z,4.13
2022-09-10T14:56:53.264Z,4.35
2022-09-10T15:06:57.855Z,3.78
2022-09-10T15:17:00.863Z,4.25
2022-09-10T15:27:04.208Z,4.78
2022-09-10T15:37:07.318Z,5.45
2022-09-10T15:47:09.867Z,4.40
2022-09-10T15:57:12.429Z,5.10
2022-09-10T16:07:14.940Z,5.03
2022-09-10T16:17:18.034Z,5.63
2022-09-10T16:27:20.866Z,5.95
2022-09-10T16:37:26.294Z,5.28
2022-09-10T16:47:30.091Z,6.20
2022-09-10T16:57:32.728Z,6.10
2022-09-10T17:07:34.958Z,6.53
2022-09-10T17:17:37.870Z,6.95
2022-09-10T17:27:40.971Z,7.00
2022-09-10T17:47:48.612Z,8.60
2022-09-10T17:57:51.277Z,7.25
2022-09-10T18:07:56.504Z,7.30
2022-09-10T18:18:00.288Z,8.15
2022-09-10T18:38:06.173Z,8.40
2022-09-10T18:48:09.066Z,7.30
2022-09-10T18:58:13.118Z,8.13
2022-09-10T19:08:18.963Z,7.53
2022-09-10T19:18:22.790Z,9.05
2022-09-10T19:28:27.164Z,7.25
2022-09-10T19:38:37.991Z,8.23
2022-09-10T19:48:43.150Z,7.38
2022-09-10T19:58:46.886Z,7.25
2022-09-10T20:18:53.825Z,7.88
2022-09-10T20:28:59.335Z,7.35
2022-09-10T20:39:02.537Z,8.18
2022-09-10T20:49:04.973Z,7.78
2022-09-10T20:59:07.634Z,8.35
2022-09-10T21:09:10.496Z,7.95
2022-09-10T21:19:17.477Z,8.23
2022-09-10T21:29:21.354Z,8.30
2022-09-10T21:39:23.692Z,7.70
2022-09-10T21:49:26.124Z,7.97
2022-09-10T21:59:28.550Z,7.50
2022-09-10T22:09:32.088Z,7.18
2022-09-10T22:19:34.528Z,6.50
2022-09-10T22:29:36.876Z,7.45
2022-09-10T22:39:39.258Z,7.35
2022-09-10T22:49:41.663Z,7.05
2022-09-10T22:59:44.149Z,7.30
2022-09-10T23:09:47.043Z,8.02
2022-09-10T23:19:49.395Z,7.32
2022-09-10T23:29:51.824Z,7.95
2022-09-10T23:39:54.258Z,7.05
2022-09-10T23:49:57.304Z,7.90
